Time;durP1;ratioP1;P1;durP2;ratioP2;P2;SDS_P1;SDS_P2;PMS_P1;PMS_P2;Temp;Humidity;BMP_temperature;BMP_pressure;BME280_temperature;BME280_humidity;BME280_pressure;Samples;Min_cycle;Max_cycle;Signal;HPM_P1;HPM_P2
2023/03/02 00:02:22;;;;;;;14.95;8.27;;;1.20;99.90;;;;;;4993452;28;20659;-73
2023/03/02 00:04:53;;;;;;;19.20;10.55;;;1.10;99.90;;;;;;4975404;28;20030;-73
2023/03/02 00:07:25;;;;;;;27.27;13.23;;;1.10;99.90;;;;;;4992758;28;20094;-74
2023/03/02 00:09:51;;;;;;;25.00;13.52;;;1.10;99.90;;;;;;4992698;28;20056;-75
2023/03/02 00:12:17;;;;;;;24.95;12.55;;;1.10;99.90;;;;;;4992477;28;20168;-74
2023/03/02 00:14:43;;;;;;;30.75;15.20;;;1.10;99.90;;;;;;4992549;28;20061;-74
2023/03/02 00:17:09;;;;;;;24.92;13.63;;;1.10;99.90;;;;;;4974749;28;20041;-74
2023/03/02 00:19:35;;;;;;;30.35;16.00;;;1.10;99.90;;;;;;5000382;28;20556;-75
2023/03/02 00:22:01;;;;;;;28.63;14.98;;;1.10;99.90;;;;;;4992529;28;20121;-74
2023/03/02 00:24:26;;;;;;;24.63;13.05;;;1.00;99.90;;;;;;4992262;28;20535;-76
2023/03/02 00:26:52;;;;;;;30.17;15.07;;;1.00;99.90;;;;;;4992603;28;20535;-73
2023/03/02 00:29:18;;;;;;;28.33;14.25;;;1.00;99.90;;;;;;4992809;28;20109;-75
2023/03/02 00:31:43;;;;;;;29.60;15.15;;;1.00;99.90;;;;;;4974924;28;20035;-73
2023/03/02 00:34:09;;;;;;;30.10;15.98;;;1.00;99.90;;;;;;4992252;28;20487;-75
2023/03/02 00:36:35;;;;;;;30.05;15.20;;;1.00;99.90;;;;;;4992120;28;20126;-78
2023/03/02 00:39:00;;;;;;;29.55;14.55;;;1.00;99.90;;;;;;4990968;28;20030;-73
2023/03/02 00:41:26;;;;;;;27.98;13.88;;;0.90;99.90;;;;;;4992668;28;20076;-75
2023/03/02 00:43:52;;;;;;;30.75;14.95;;;0.90;99.90;;;;;;4991996;28;20038;-76
2023/03/02 00:46:21;;;;;;;26.67;15.18;;;1.00;99.90;;;;;;4974896;28;20038;-74
2023/03/02 00:48:47;;;;;;;27.23;14.32;;;1.00;99.90;;;;;;4992298;28;20037;-73
2023/03/02 00:51:13;;;;;;;22.90;12.70;;;0.90;99.90;;;;;;4998985;28;20045;-75
2023/03/02 00:53:39;;;;;;;21.33;11.77;;;0.90;99.90;;;;;;4975677;28;20026;-75
2023/03/02 00:56:06;;;;;;;18.98;10.23;;;0.90;99.90;;;;;;4995744;28;20041;-75
2023/03/02 00:58:32;;;;;;;26.77;13.77;;;0.90;99.90;;;;;;4985020;28;20035;-74
2023/03/02 01:00:58;;;;;;;28.05;14.10;;;0.90;99.90;;;;;;5004949;28;20027;-74
2023/03/02 01:03:24;;;;;;;25.58;13.02;;;0.90;99.90;;;;;;5006892;28;20064;-75
2023/03/02 01:05:55;;;;;;;27.42;13.88;;;0.90;99.90;;;;;;5005925;28;20030;-74
2023/03/02 01:08:21;;;;;;;25.67;12.77;;;0.90;99.90;;;;;;5002688;28;20026;-72
2023/03/02 01:10:47;;;;;;;21.75;12.48;;;0.90;99.90;;;;;;4983620;28;20444;-75
2023/03/02 01:13:13;;;;;;;25.85;12.38;;;0.80;99.90;;;;;;5005319;28;20045;-73
2023/03/02 01:15:38;;;;;;;28.42;15.77;;;0.80;99.90;;;;;;4982787;28;20041;-73
2023/03/02 01:18:04;;;;;;;27.65;15.23;;;0.80;99.90;;;;;;4997510;28;20075;-75
2023/03/02 01:20:30;;;;;;;24.42;14.07;;;0.80;99.90;;;;;;4996313;28;20114;-77
2023/03/02 01:22:56;;;;;;;28.35;15.90;;;0.80;99.90;;;;;;4996319;28;20034;-74
2023/03/02 01:25:22;;;;;;;33.65;17.20;;;0.80;99.90;;;;;;4996236;28;20415;-75
2023/03/02 01:27:47;;;;;;;39.85;17.85;;;0.80;99.90;;;;;;4999685;28;20086;-73
2023/03/02 01:30:13;;;;;;;29.38;15.85;;;0.80;99.90;;;;;;4981316;28;20057;-74
2023/03/02 01:32:39;;;;;;;28.48;14.60;;;0.70;99.90;;;;;;5006056;28;20100;-74
2023/03/02 01:35:05;;;;;;;27.98;15.80;;;0.70;99.90;;;;;;4980609;28;20205;-75
2023/03/02 01:37:31;;;;;;;24.80;12.77;;;0.60;99.90;;;;;;4997573;28;20464;-73
2023/03/02 01:39:56;;;;;;;26.52;13.63;;;0.70;99.90;;;;;;4997105;28;20030;-74
2023/03/02 01:42:22;;;;;;;25.58;12.98;;;0.60;99.90;;;;;;4979347;28;20034;-73
2023/03/02 01:44:55;;;;;;;31.42;16.60;;;0.60;99.90;;;;;;4979785;28;20121;-73
2023/03/02 01:47:38;;;;;;;27.25;14.75;;;0.60;99.90;;;;;;4996542;28;20025;-73
2023/03/02 01:50:25;;;;;;;33.80;16.88;;;0.60;99.90;;;;;;4982851;28;20128;-73
2023/03/02 01:52:53;;;;;;;30.08;15.00;;;0.60;99.90;;;;;;5016812;28;20088;-77
2023/03/02 01:55:23;;;;;;;28.67;13.80;;;0.60;99.90;;;;;;5016347;28;20508;-73
2023/03/02 01:57:50;;;;;;;25.98;14.13;;;0.60;99.90;;;;;;4999801;28;20367;-75
2023/03/02 02:00:24;;;;;;;25.35;12.27;;;0.60;99.90;;;;;;4987948;28;20101;-74
2023/03/02 02:02:51;;;;;;;20.05;10.88;;;0.60;99.90;;;;;;4996198;28;20018;-74
2023/03/02 02:05:23;;;;;;;22.10;11.68;;;0.60;99.90;;;;;;4996442;28;20026;-76
2023/03/02 02:07:49;;;;;;;22.43;10.83;;;0.60;99.90;;;;;;4996248;28;20127;-74
2023/03/02 02:10:15;;;;;;;21.63;10.50;;;0.60;99.90;;;;;;4996132;28;20305;-74
2023/03/02 02:12:41;;;;;;;17.88;10.15;;;0.60;99.90;;;;;;4996049;28;20111;-73
2023/03/02 02:15:07;;;;;;;18.20;8.93;;;0.60;99.90;;;;;;4996028;28;20452;-75
2023/03/02 02:17:33;;;;;;;17.13;8.13;;;0.50;99.90;;;;;;4996184;28;20070;-74
2023/03/02 02:20:35;;;;;;;15.52;8.90;;;0.50;99.90;;;;;;5007657;28;20632;-74
2023/03/02 02:23:20;;;;;;;16.87;8.90;;;0.50;99.90;;;;;;4999159;28;20033;-73
2023/03/02 02:25:52;;;;;;;20.23;11.10;;;0.50;99.90;;;;;;4983131;28;20023;-73
2023/03/02 02:28:38;;;;;;;19.17;10.65;;;0.50;99.90;;;;;;4979289;28;20026;-76
2023/03/02 02:31:25;;;;;;;17.25;9.32;;;0.50;99.90;;;;;;4997166;28;20030;-73
2023/03/02 02:34:00;;;;;;;17.75;9.85;;;0.50;99.90;;;;;;4979104;28;20368;-74
2023/03/02 02:36:31;;;;;;;17.83;8.57;;;0.50;99.90;;;;;;4978381;28;20026;-74
2023/03/02 02:39:01;;;;;;;21.58;11.65;;;0.50;99.90;;;;;;4996618;28;20106;-73
2023/03/02 02:41:32;;;;;;;23.13;13.15;;;0.50;99.90;;;;;;4994362;28;20117;-74
2023/03/02 02:43:58;;;;;;;18.57;10.97;;;0.50;99.90;;;;;;4978068;28;20038;-76
2023/03/02 02:46:24;;;;;;;17.23;9.48;;;0.50;99.90;;;;;;4994582;28;20080;-75
2023/03/02 02:48:51;;;;;;;16.67;8.90;;;0.40;99.90;;;;;;5000621;28;20367;-75
2023/03/02 02:51:22;;;;;;;19.20;10.60;;;0.40;99.90;;;;;;4990629;28;20410;-74
2023/03/02 02:54:00;;;;;;;19.48;10.60;;;0.40;99.90;;;;;;4983060;28;20103;-74
2023/03/02 02:56:31;;;;;;;18.85;9.32;;;0.40;99.90;;;;;;5000474;28;20029;-74
2023/03/02 02:59:13;;;;;;;17.40;9.10;;;0.50;99.90;;;;;;4997649;28;20081;-74
2023/03/02 03:01:39;;;;;;;16.00;9.35;;;0.50;99.90;;;;;;4980831;28;20293;-72
2023/03/02 03:04:07;;;;;;;18.23;10.43;;;0.40;99.90;;;;;;4982546;28;20041;-75
2023/03/02 03:06:40;;;;;;;20.00;10.13;;;0.50;99.90;;;;;;4981403;28;20395;-74
2023/03/02 03:09:07;;;;;;;22.15;11.57;;;0.50;99.90;;;;;;4978735;28;20058;-74
2023/03/02 03:11:36;;;;;;;26.15;13.13;;;0.50;99.90;;;;;;4995977;28;20022;-74
2023/03/02 03:14:11;;;;;;;25.95;12.80;;;0.50;99.90;;;;;;4990789;28;20439;-73
2023/03/02 03:16:39;;;;;;;22.80;12.52;;;0.50;99.90;;;;;;4979860;28;20066;-75
2023/03/02 03:19:29;;;;;;;22.02;11.88;;;0.50;99.90;;;;;;4977404;28;20383;-75
2023/03/02 03:22:00;;;;;;;24.70;12.68;;;0.50;99.90;;;;;;4995210;28;20022;-75
2023/03/02 03:24:27;;;;;;;19.98;11.07;;;0.50;99.90;;;;;;4995899;28;20022;-74
2023/03/02 03:26:54;;;;;;;18.50;10.57;;;0.50;99.90;;;;;;4996594;28;20022;-75
2023/03/02 03:29:23;;;;;;;21.75;11.68;;;0.50;99.90;;;;;;4997006;28;20050;-74
2023/03/02 03:31:50;;;;;;;21.67;11.57;;;0.50;99.90;;;;;;4998338;28;20029;-74
2023/03/02 03:34:16;;;;;;;27.88;15.10;;;0.50;99.90;;;;;;5003782;28;20048;-75
2023/03/02 03:36:42;;;;;;;30.77;15.68;;;0.50;99.90;;;;;;5004937;28;20077;-75
2023/03/02 03:39:09;;;;;;;30.65;15.52;;;0.40;99.90;;;;;;5006649;28;20069;-74
2023/03/02 03:41:36;;;;;;;28.30;14.60;;;0.40;99.90;;;;;;4991098;28;20117;-73
2023/03/02 03:44:03;;;;;;;24.75;14.05;;;0.40;99.90;;;;;;5007650;28;20472;-74
2023/03/02 03:46:29;;;;;;;26.52;14.27;;;0.40;99.90;;;;;;5008430;28;20026;-73
2023/03/02 03:48:55;;;;;;;22.27;12.75;;;0.40;99.90;;;;;;5000308;28;20471;-75
2023/03/02 03:51:21;;;;;;;24.60;13.40;;;0.40;99.90;;;;;;4995700;28;20042;-74
2023/03/02 03:53:58;;;;;;;22.20;11.13;;;0.40;99.90;;;;;;4994946;28;20476;-74
2023/03/02 03:56:29;;;;;;;20.45;10.43;;;0.30;99.90;;;;;;4994546;28;20109;-74
2023/03/02 03:59:05;;;;;;;21.02;10.93;;;0.30;99.90;;;;;;4994837;28;20033;-74
2023/03/02 04:01:50;;;;;;;20.45;10.82;;;0.30;99.90;;;;;;4977474;28;20057;-74
2023/03/02 04:04:29;;;;;;;19.45;9.88;;;0.30;99.90;;;;;;4976549;28;20494;-74
2023/03/02 04:06:55;;;;;;;15.57;8.98;;;0.30;99.90;;;;;;4994388;28;20019;-75
2023/03/02 04:09:22;;;;;;;16.50;9.20;;;0.20;99.90;;;;;;4994326;28;20029;-73
2023/03/02 04:11:50;;;;;;;13.85;7.78;;;0.20;99.90;;;;;;4994209;28;20093;-76
2023/03/02 04:14:17;;;;;;;13.38;7.97;;;0.20;99.90;;;;;;4977765;28;20045;-75
2023/03/02 04:16:43;;;;;;;14.60;7.93;;;0.20;99.90;;;;;;4994369;28;20137;-75
2023/03/02 04:19:10;;;;;;;17.48;9.23;;;0.20;99.90;;;;;;5014365;28;20388;-76
2023/03/02 04:21:43;;;;;;;14.25;8.45;;;0.20;99.90;;;;;;5013835;28;20022;-76
2023/03/02 04:24:10;;;;;;;14.82;7.57;;;0.20;99.90;;;;;;4998752;28;20021;-75
2023/03/02 04:26:38;;;;;;;12.32;7.00;;;0.10;99.90;;;;;;5009799;28;20038;-74
2023/03/02 04:29:04;;;;;;;13.70;6.43;;;0.10;99.90;;;;;;4993856;28;20022;-75
2023/03/02 04:31:33;;;;;;;11.10;6.20;;;0.10;99.90;;;;;;5009370;28;20077;-75
2023/03/02 04:33:59;;;;;;;10.88;6.25;;;0.10;99.90;;;;;;5010503;28;20026;-75
2023/03/02 04:36:25;;;;;;;10.48;6.13;;;0.10;99.90;;;;;;5014037;28;20053;-75
2023/03/02 04:38:51;;;;;;;12.48;6.70;;;0.10;99.90;;;;;;4998541;28;20027;-74
2023/03/02 04:41:18;;;;;;;12.68;7.28;;;0.10;99.90;;;;;;4998227;28;20040;-75
2023/03/02 04:43:44;;;;;;;14.15;7.65;;;0.10;99.90;;;;;;5000568;28;20030;-74
2023/03/02 04:46:20;;;;;;;15.45;7.63;;;0.10;99.90;;;;;;5010400;28;20026;-75
2023/03/02 04:48:46;;;;;;;10.52;5.95;;;0.10;99.90;;;;;;5000040;28;20394;-74
2023/03/02 04:51:22;;;;;;;11.30;6.07;;;0.10;99.90;;;;;;5017471;28;20375;-74
2023/03/02 04:53:49;;;;;;;11.43;6.38;;;0.10;99.90;;;;;;5007665;28;20076;-73
2023/03/02 04:56:15;;;;;;;8.65;5.05;;;0.10;99.90;;;;;;4997344;28;20029;-74
2023/03/02 04:58:41;;;;;;;11.95;6.85;;;0.10;99.90;;;;;;4997998;28;20102;-76
2023/03/02 05:01:09;;;;;;;13.98;6.60;;;0.10;99.90;;;;;;4997498;28;20484;-74
2023/03/02 05:03:34;;;;;;;11.00;6.15;;;0.10;99.90;;;;;;4980027;28;20027;-75
2023/03/02 05:06:02;;;;;;;10.18;5.40;;;0.10;99.90;;;;;;4979673;28;20379;-74
2023/03/02 05:08:31;;;;;;;8.23;5.28;;;0.20;99.90;;;;;;4997527;28;20014;-75
2023/03/02 05:10:57;;;;;;;8.20;4.53;;;0.20;99.90;;;;;;4996176;28;20030;-74
2023/03/02 05:13:24;;;;;;;9.98;5.35;;;0.20;99.90;;;;;;5000865;28;20041;-75
2023/03/02 05:15:51;;;;;;;8.35;5.05;;;0.20;99.90;;;;;;5008834;28;20116;-74
2023/03/02 05:18:18;;;;;;;8.82;5.07;;;0.20;99.90;;;;;;5018353;28;20420;-76
2023/03/02 05:20:45;;;;;;;10.05;5.32;;;0.20;99.90;;;;;;5013316;28;20088;-74
2023/03/02 05:23:22;;;;;;;11.15;5.55;;;0.20;99.90;;;;;;4997502;28;20132;-74
2023/03/02 05:25:49;;;;;;;10.35;6.05;;;0.20;99.90;;;;;;4996938;28;20014;-76
2023/03/02 05:28:15;;;;;;;9.35;5.43;;;0.20;99.90;;;;;;4997398;28;20057;-76
2023/03/02 05:30:41;;;;;;;9.25;5.07;;;0.20;99.90;;;;;;4997075;28;20081;-76
2023/03/02 05:33:07;;;;;;;8.23;5.05;;;0.20;99.90;;;;;;4980097;28;20034;-75
2023/03/02 05:35:33;;;;;;;8.18;4.72;;;0.20;99.90;;;;;;4984054;28;20050;-75
2023/03/02 05:37:59;;;;;;;8.70;5.07;;;0.10;99.90;;;;;;4992313;28;20026;-75
2023/03/02 05:40:26;;;;;;;8.20;4.90;;;0.10;99.90;;;;;;4997364;28;20100;-76
2023/03/02 05:42:51;;;;;;;8.73;5.03;;;0.10;99.90;;;;;;4999041;28;20567;-75
2023/03/02 05:45:21;;;;;;;10.55;5.28;;;0.10;99.90;;;;;;5007439;28;20057;-76
2023/03/02 05:47:47;;;;;;;10.35;5.18;;;0.20;99.90;;;;;;5016667;28;20049;-74
2023/03/02 05:50:13;;;;;;;11.70;6.15;;;0.20;99.90;;;;;;5017401;28;20026;-75
2023/03/02 05:52:38;;;;;;;15.30;6.90;;;0.20;99.90;;;;;;5005271;28;20492;-76
2023/03/02 05:55:04;;;;;;;11.52;6.30;;;0.20;99.90;;;;;;4997067;28;20085;-75
2023/03/02 05:57:30;;;;;;;11.02;6.25;;;0.20;99.90;;;;;;4987603;28;20102;-76
2023/03/02 05:59:58;;;;;;;12.77;6.88;;;0.30;99.90;;;;;;5001153;28;20034;-75
2023/03/02 06:02:23;;;;;;;9.93;5.82;;;0.30;99.90;;;;;;4999097;28;20030;-76
2023/03/02 06:04:49;;;;;;;10.88;5.22;;;0.30;99.90;;;;;;4998726;28;20053;-76
2023/03/02 06:07:15;;;;;;;9.07;4.85;;;0.30;99.90;;;;;;5000979;28;20058;-78
2023/03/02 06:09:40;;;;;;;8.90;5.45;;;0.40;99.90;;;;;;5001820;28;20088;-75
2023/03/02 06:12:07;;;;;;;8.98;5.03;;;0.40;99.90;;;;;;5006385;28;20073;-75
2023/03/02 06:14:34;;;;;;;10.77;6.30;;;0.50;99.90;;;;;;5006641;28;20494;-77
2023/03/02 06:17:00;;;;;;;9.20;4.68;;;0.50;99.90;;;;;;5005676;28;20097;-76
2023/03/02 06:19:26;;;;;;;10.25;6.05;;;0.50;99.90;;;;;;5006414;28;20112;-76
2023/03/02 06:21:51;;;;;;;13.13;7.40;;;0.60;99.90;;;;;;5005977;28;20034;-76
2023/03/02 06:24:17;;;;;;;12.65;7.30;;;0.60;99.90;;;;;;5007101;28;20049;-77
2023/03/02 06:26:43;;;;;;;11.13;6.28;;;0.60;99.90;;;;;;4982588;28;20027;-77
2023/03/02 06:29:08;;;;;;;12.07;6.97;;;0.70;99.90;;;;;;4996771;28;20080;-76
2023/03/02 06:31:34;;;;;;;11.73;6.30;;;0.80;99.90;;;;;;4996852;28;20018;-77
2023/03/02 06:34:00;;;;;;;9.82;5.00;;;0.80;99.90;;;;;;4997029;28;20038;-76
2023/03/02 06:36:26;;;;;;;9.07;5.40;;;0.90;99.90;;;;;;4997699;28;20038;-77
2023/03/02 06:38:52;;;;;;;8.85;4.93;;;0.90;99.90;;;;;;4998318;28;20034;-77
2023/03/02 06:41:18;;;;;;;8.15;4.63;;;1.00;99.90;;;;;;4979026;28;20494;-76
2023/03/02 06:43:44;;;;;;;8.20;4.82;;;;;;;;;;4997137;28;20041;-76
2023/03/02 06:46:11;;;;;;;8.10;4.53;;;1.10;99.90;;;;;;5001203;28;20029;-76
2023/03/02 06:48:37;;;;;;;7.15;4.60;;;1.10;99.90;;;;;;5001216;28;20309;-75
2023/03/02 06:51:06;;;;;;;6.43;3.92;;;1.20;99.90;;;;;;5009308;28;20096;-76
2023/03/02 06:53:32;;;;;;;9.75;5.72;;;1.30;99.90;;;;;;5004314;28;20030;-76
2023/03/02 06:55:58;;;;;;;7.43;5.10;;;1.30;99.90;;;;;;5012758;28;20046;-77
2023/03/02 06:58:24;;;;;;;7.45;4.65;;;1.40;99.90;;;;;;5003377;28;20478;-76
2023/03/02 07:00:49;;;;;;;9.82;5.43;;;1.40;99.90;;;;;;4987573;28;20041;-79
2023/03/02 07:03:16;;;;;;;9.10;5.53;;;1.50;99.90;;;;;;4988540;28;20093;-78
2023/03/02 07:05:41;;;;;;;10.02;6.18;;;1.50;99.90;;;;;;5007154;28;20022;-76
2023/03/02 07:08:08;;;;;;;10.93;7.07;;;1.60;99.90;;;;;;5004695;28;20030;-80
2023/03/02 07:10:35;;;;;;;12.02;6.88;;;1.60;99.90;;;;;;5001556;28;20026;-81
2023/03/02 07:13:01;;;;;;;12.38;7.78;;;1.60;99.90;;;;;;4987958;28;20033;-77
2023/03/02 07:15:27;;;;;;;15.75;9.13;;;1.70;99.90;;;;;;4995614;28;20022;-77
2023/03/02 07:17:52;;;;;;;13.95;7.43;;;1.80;99.90;;;;;;5021127;28;20025;-77
2023/03/02 07:20:25;;;;;;;14.68;8.82;;;1.80;99.90;;;;;;5005636;28;20065;-79
2023/03/02 07:22:50;;;;;;;28.30;13.70;;;1.90;99.90;;;;;;5004496;28;20037;-78
2023/03/02 07:25:16;;;;;;;26.00;13.20;;;2.00;99.90;;;;;;5012551;28;20030;-79
2023/03/02 07:27:42;;;;;;;24.02;14.40;;;2.00;99.90;;;;;;4984616;28;20189;-79
2023/03/02 07:30:09;;;;;;;28.08;15.07;;;2.00;99.90;;;;;;5002008;28;20447;-78
2023/03/02 07:32:34;;;;;;;32.90;15.85;;;2.10;99.90;;;;;;4983466;28;20037;-78
2023/03/02 07:35:00;;;;;;;32.25;16.95;;;2.20;99.90;;;;;;4983479;28;20031;-78
2023/03/02 07:37:26;;;;;;;31.83;15.65;;;2.20;99.90;;;;;;4983899;28;20387;-80
2023/03/02 07:39:51;;;;;;;27.45;14.25;;;2.30;99.90;;;;;;5001485;28;20038;-77
2023/03/02 07:42:17;;;;;;;22.63;12.90;;;2.30;99.90;;;;;;5003718;28;20850;-79
2023/03/02 07:44:43;;;;;;;18.63;10.55;;;2.50;99.90;;;;;;5010460;28;20046;-80
2023/03/02 07:47:09;;;;;;;19.70;11.32;;;2.60;99.90;;;;;;5002533;28;20082;-79
2023/03/02 07:49:35;;;;;;;25.73;13.15;;;2.70;99.90;;;;;;5001757;28;20050;-78
2023/03/02 07:52:02;;;;;;;24.55;12.73;;;2.80;99.90;;;;;;5004272;28;20057;-79
2023/03/02 07:54:29;;;;;;;24.20;12.93;;;2.80;99.90;;;;;;5002568;28;20034;-79
2023/03/02 07:56:56;;;;;;;26.52;14.70;;;2.90;99.90;;;;;;5003306;28;20120;-78
2023/03/02 07:59:22;;;;;;;26.90;13.77;;;2.90;99.90;;;;;;4988364;28;20136;-78
2023/03/02 08:01:50;;;;;;;29.90;15.40;;;3.10;99.90;;;;;;4996144;28;20033;-78
2023/03/02 08:04:16;;;;;;;25.38;13.88;;;3.10;99.90;;;;;;5012511;28;20030;-76
2023/03/02 08:06:41;;;;;;;21.48;12.65;;;3.20;99.90;;;;;;5012732;28;20029;-77
2023/03/02 08:09:07;;;;;;;25.02;12.77;;;3.30;99.90;;;;;;5012990;28;20381;-77
2023/03/02 08:11:33;;;;;;;21.38;12.40;;;3.40;99.90;;;;;;4994322;28;20037;-78
2023/03/02 08:14:00;;;;;;;23.92;13.25;;;3.60;99.80;;;;;;5024048;28;20056;-76
2023/03/02 08:16:26;;;;;;;25.15;14.95;;;3.70;99.60;;;;;;5030247;28;20084;-79
2023/03/02 08:18:55;;;;;;;28.13;16.05;;;3.80;98.80;;;;;;5012928;28;20030;-78
2023/03/02 08:21:23;;;;;;;27.77;14.45;;;3.80;98.00;;;;;;5011560;28;20030;-78
2023/03/02 08:23:49;;;;;;;23.23;12.40;;;3.80;98.10;;;;;;5002179;28;20110;-78
2023/03/02 08:26:16;;;;;;;20.13;10.55;;;3.80;98.20;;;;;;5005468;28;20037;-78
2023/03/02 08:28:42;;;;;;;20.25;10.75;;;3.90;98.10;;;;;;5005324;28;20038;-79
2023/03/02 08:31:11;;;;;;;20.13;11.25;;;4.00;97.90;;;;;;5005091;28;20042;-77
2023/03/02 08:33:37;;;;;;;25.85;14.32;;;4.00;97.80;;;;;;5011446;28;20101;-79
2023/03/02 08:36:06;;;;;;;23.88;13.23;;;4.00;97.20;;;;;;5004767;28;20089;-79
2023/03/02 08:38:32;;;;;;;17.70;10.77;;;3.90;97.20;;;;;;5001903;28;20099;-79
2023/03/02 08:41:02;;;;;;;15.48;9.88;;;4.00;97.70;;;;;;4984522;28;20097;-81
2023/03/02 08:43:28;;;;;;;21.25;11.65;;;4.20;97.30;;;;;;4984118;28;20109;-78
2023/03/02 08:45:58;;;;;;;24.33;14.00;;;4.40;97.00;;;;;;5008817;28;20026;-78
2023/03/02 08:48:25;;;;;;;21.83;13.02;;;4.50;96.40;;;;;;5002238;28;20037;-78
2023/03/02 08:51:00;;;;;;;22.48;12.32;;;4.60;96.30;;;;;;5001111;28;20019;-78
2023/03/02 08:53:27;;;;;;;21.15;12.38;;;4.80;96.10;;;;;;5002416;28;20032;-79
2023/03/02 08:55:53;;;;;;;22.85;14.50;;;5.10;95.50;;;;;;5001866;28;20052;-79
2023/03/02 08:58:20;;;;;;;22.20;12.35;;;5.20;94.90;;;;;;5002569;28;20089;-79
2023/03/02 09:00:45;;;;;;;19.02;10.82;;;5.40;94.80;;;;;;5001615;28;20035;-78
2023/03/02 09:03:12;;;;;;;20.40;11.80;;;5.50;94.70;;;;;;4996583;28;20073;-76
2023/03/02 09:05:37;;;;;;;19.65;12.30;;;5.60;94.00;;;;;;4996974;28;20061;-75
2023/03/02 09:08:04;;;;;;;17.73;11.05;;;5.70;93.80;;;;;;4998039;28;20022;-77
2023/03/02 09:10:29;;;;;;;14.88;9.32;;;5.90;93.50;;;;;;5002453;28;20061;-77
2023/03/02 09:12:55;;;;;;;10.63;7.78;;;6.10;93.40;;;;;;5000314;28;20034;-76
2023/03/02 09:15:21;;;;;;;13.38;7.90;;;6.20;92.80;;;;;;4998477;28;20093;-75
2023/03/02 09:17:46;;;;;;;11.00;7.30;;;6.50;92.30;;;;;;5016755;28;20032;-76
2023/03/02 09:20:13;;;;;;;14.05;8.02;;;6.80;92.10;;;;;;4999404;28;20035;-76
2023/03/02 09:22:39;;;;;;;16.48;10.00;;;6.90;91.20;;;;;;4998771;28;20026;-77
2023/03/02 09:25:06;;;;;;;19.65;11.77;;;7.00;90.70;;;;;;4995229;28;20039;-77
2023/03/02 09:27:32;;;;;;;18.98;11.02;;;7.00;90.30;;;;;;4997875;28;20025;-76
2023/03/02 09:29:58;;;;;;;19.85;11.02;;;7.00;90.10;;;;;;4979270;28;20094;-75
2023/03/02 09:32:24;;;;;;;16.35;10.15;;;7.00;90.00;;;;;;4979322;28;20035;-76
2023/03/02 09:34:50;;;;;;;16.30;9.50;;;;;;;;;;4997236;28;20081;-75
2023/03/02 09:37:16;;;;;;;12.10;7.93;;;7.40;90.00;;;;;;4981899;28;20034;-77
2023/03/02 09:39:41;;;;;;;13.32;7.97;;;7.70;89.50;;;;;;4982213;28;20069;-77
2023/03/02 09:42:38;;;;;;;15.75;9.07;;;8.00;87.50;;;;;;4981355;28;20042;-76
2023/03/02 09:45:21;;;;;;;19.92;10.85;;;8.00;85.90;;;;;;5003020;28;20025;-77
2023/03/02 09:47:59;;;;;;;16.35;9.13;;;7.90;85.40;;;;;;5019034;28;20471;-79
2023/03/02 09:50:30;;;;;;;12.13;8.02;;;8.00;85.80;;;;;;5009904;28;20023;-78
2023/03/02 09:53:29;;;;;;;22.80;11.77;;;8.20;84.70;;;;;;4999135;28;20029;-76
2023/03/02 09:55:59;;;;;;;16.02;9.73;;;8.30;83.20;;;;;;4997559;28;20034;-78
2023/03/02 09:58:33;;;;;;;17.90;11.32;;;8.30;83.00;;;;;;4982471;28;20057;-76
2023/03/02 10:01:03;;;;;;;18.00;11.43;;;8.30;81.80;;;;;;5000222;28;20494;-77
2023/03/02 10:03:39;;;;;;;20.52;12.68;;;8.20;81.60;;;;;;4999208;28;20033;-77
2023/03/02 10:06:05;;;;;;;19.08;11.80;;;8.20;82.30;;;;;;4999082;28;20022;-77
2023/03/02 10:08:36;;;;;;;16.23;10.82;;;8.30;81.40;;;;;;4999971;28;20375;-77
2023/03/02 10:11:30;;;;;;;17.60;11.05;;;8.30;82.00;;;;;;5000083;28;20022;-76
2023/03/02 10:14:11;;;;;;;16.40;9.85;;;8.50;81.60;;;;;;4984233;28;20112;-77
2023/03/02 10:16:47;;;;;;;16.80;10.35;;;8.70;80.70;;;;;;5001592;28;20040;-77
2023/03/02 10:19:45;;;;;;;21.25;10.45;;;8.70;79.80;;;;;;5018255;28;20030;-79
2023/03/02 10:22:17;;;;;;;15.20;9.70;;;8.70;79.20;;;;;;4999577;28;20039;-77
2023/03/02 10:25:03;;;;;;;13.20;8.45;;;8.70;79.90;;;;;;4998045;28;20031;-76
2023/03/02 10:27:38;;;;;;;12.07;7.82;;;8.80;80.00;;;;;;4982749;28;20026;-77
2023/03/02 10:30:21;;;;;;;17.58;8.70;;;9.00;79.70;;;;;;5000765;28;20367;-77
2023/03/02 10:32:51;;;;;;;10.85;8.07;;;9.10;78.40;;;;;;4979913;28;20058;-77
2023/03/02 10:35:23;;;;;;;14.88;8.32;;;9.20;78.50;;;;;;4999181;28;20113;-79
2023/03/02 10:38:03;;;;;;;15.63;9.93;;;9.30;78.20;;;;;;4998946;28;20031;-77
2023/03/02 10:40:45;;;;;;;18.42;11.25;;;9.40;77.60;;;;;;4998435;28;20029;-78
2023/03/02 10:43:34;;;;;;;14.02;9.60;;;9.30;76.80;;;;;;4984767;28;20446;-77
2023/03/02 10:46:08;;;;;;;15.05;9.25;;;9.20;76.80;;;;;;5010378;28;20026;-80
2023/03/02 10:48:48;;;;;;;15.38;9.45;;;9.30;77.40;;;;;;4983166;28;20018;-77
2023/03/02 10:51:36;;;;;;;14.30;9.05;;;9.30;76.70;;;;;;4995795;28;20019;-78
2023/03/02 10:54:03;;;;;;;13.20;8.68;;;9.40;76.90;;;;;;4977713;28;20039;-79
2023/03/02 10:56:30;;;;;;;10.55;6.93;;;9.60;76.60;;;;;;4978671;28;20031;-78
2023/03/02 10:59:02;;;;;;;10.02;6.55;;;9.70;76.10;;;;;;4976350;28;20396;-78
2023/03/02 11:01:29;;;;;;;16.03;9.37;;;9.80;75.60;;;;;;4976446;28;20127;-78
2023/03/02 11:04:00;;;;;;;12.00;7.63;;;9.80;74.90;;;;;;4993236;28;20106;-77
2023/03/02 11:06:27;;;;;;;13.77;7.35;;;9.80;75.40;;;;;;4996665;28;20109;-77
2023/03/02 11:08:59;;;;;;;13.18;6.75;;;10.00;74.90;;;;;;4997231;28;20084;-77
2023/03/02 11:11:25;;;;;;;12.88;7.70;;;10.10;74.40;;;;;;4998517;28;20023;-78
2023/03/02 11:13:51;;;;;;;9.23;6.13;;;10.10;73.90;;;;;;5004508;28;20057;-79
2023/03/02 11:16:17;;;;;;;6.65;4.72;;;10.30;74.00;;;;;;5009953;28;20109;-76
2023/03/02 11:18:48;;;;;;;11.52;6.65;;;10.50;73.30;;;;;;5003986;28;20037;-78
2023/03/02 11:21:26;;;;;;;24.20;10.98;;;10.40;72.60;;;;;;5001495;28;20503;-78
2023/03/02 11:24:14;;;;;;;19.38;11.48;;;10.40;71.70;;;;;;4979807;28;20197;-77
2023/03/02 11:27:11;;;;;;;14.73;10.15;;;10.20;71.40;;;;;;4994772;28;20407;-78
2023/03/02 11:29:52;;;;;;;10.63;7.18;;;10.00;72.90;;;;;;4995060;28;20026;-78
2023/03/02 11:32:49;;;;;;;14.60;7.50;;;10.10;73.70;;;;;;5011161;28;20026;-78
2023/03/02 11:35:49;;;;;;;10.38;6.85;;;10.20;73.60;;;;;;5013454;28;20045;-77
2023/03/02 11:38:22;;;;;;;10.43;6.63;;;10.40;73.30;;;;;;4997217;28;20030;-78
2023/03/02 11:41:23;;;;;;;9.50;6.38;;;10.60;73.00;;;;;;5002734;28;20026;-76
2023/03/02 11:43:58;;;;;;;6.57;4.78;;;10.70;72.30;;;;;;5000357;28;20038;-77
2023/03/02 11:46:30;;;;;;;8.63;5.97;;;10.90;72.00;;;;;;5021618;28;20084;-77
2023/03/02 11:49:05;;;;;;;12.35;7.25;;;10.90;71.20;;;;;;5028226;28;20034;-77
2023/03/02 11:51:35;;;;;;;12.40;7.30;;;10.90;71.00;;;;;;5028140;28;20056;-76
2023/03/02 11:54:10;;;;;;;7.28;4.90;;;10.80;70.60;;;;;;5024764;28;20022;-77
2023/03/02 11:56:38;;;;;;;7.53;4.88;;;10.90;71.00;;;;;;5012066;28;20041;-77
2023/03/02 11:59:16;;;;;;;5.50;4.28;;;11.00;70.80;;;;;;4984352;28;20062;-78
2023/03/02 12:01:46;;;;;;;15.00;8.65;;;11.10;70.20;;;;;;4994695;28;20050;-76
2023/03/02 12:04:27;;;;;;;11.15;7.22;;;11.20;69.00;;;;;;4992666;28;20499;-77
2023/03/02 12:06:53;;;;;;;13.35;8.68;;;11.20;69.20;;;;;;4994139;28;20471;-78
2023/03/02 12:09:21;;;;;;;10.55;7.35;;;11.10;68.50;;;;;;4994608;28;20081;-76
2023/03/02 12:11:54;;;;;;;9.07;6.32;;;11.00;68.90;;;;;;4976552;28;20391;-77
2023/03/02 12:14:37;;;;;;;8.77;5.70;;;11.00;69.60;;;;;;5010762;28;20038;-75
2023/03/02 12:17:17;;;;;;;;;;;11.20;69.50;;;;;;4993538;28;20042;-78
2023/03/02 12:19:44;;;;;;;11.65;6.55;;;11.20;68.80;;;;;;5007587;28;19913;-78
2023/03/02 12:22:12;;;;;;;10.50;6.97;;;11.20;68.70;;;;;;4979529;28;20491;-78
2023/03/02 12:24:40;;;;;;;11.65;6.53;;;11.10;68.80;;;;;;4995958;28;20089;-78
2023/03/02 12:27:19;;;;;;;10.07;6.72;;;11.00;68.90;;;;;;4978344;28;20089;-78
2023/03/02 12:30:10;;;;;;;10.18;6.97;;;11.10;69.00;;;;;;4995540;28;20113;-77
2023/03/02 12:32:36;;;;;;;11.50;6.18;;;11.10;68.80;;;;;;4976682;28;20030;-78
2023/03/02 12:35:13;;;;;;;8.38;5.35;;;11.30;68.70;;;;;;4994226;28;20022;-77
2023/03/02 12:37:55;;;;;;;7.47;5.40;;;11.50;68.30;;;;;;4996738;28;20026;-77
2023/03/02 12:40:59;;;;;;;7.80;5.22;;;11.50;67.60;;;;;;4997998;28;20023;-76
2023/03/02 12:43:26;;;;;;;8.30;5.80;;;11.50;67.40;;;;;;5001140;28;20022;-77
2023/03/02 12:46:29;;;;;;;11.63;7.78;;;11.50;67.40;;;;;;4994810;28;20038;-76
2023/03/02 12:49:04;;;;;;;13.15;8.13;;;11.50;67.40;;;;;;4976478;28;20018;-75
2023/03/02 12:51:43;;;;;;;12.02;7.15;;;11.40;67.80;;;;;;4995940;28;20022;-78
2023/03/02 12:54:18;;;;;;;11.05;6.93;;;11.30;67.30;;;;;;4994330;28;20027;-76
2023/03/02 12:56:45;;;;;;;14.70;7.53;;;11.40;67.30;;;;;;4995946;28;20106;-77
2023/03/02 12:59:26;;;;;;;10.48;6.35;;;11.40;66.60;;;;;;4998738;28;20041;-76